createdAt,value
2023-03-11T00:02:28.912Z,14.13
2023-03-11T00:05:17.749Z,13.80
2023-03-11T00:08:01.620Z,13.87
2023-03-11T00:10:47.092Z,14.00
2023-03-11T00:13:31.626Z,17.10
2023-03-11T00:16:14.832Z,17.90
2023-03-11T00:19:00.433Z,17.83
2023-03-11T00:21:43.824Z,19.23
2023-03-11T00:24:27.048Z,14.53
2023-03-11T00:27:10.208Z,12.20
2023-03-11T00:29:53.477Z,11.47
2023-03-11T00:32:36.733Z,9.90
2023-03-11T00:35:24.372Z,9.17
2023-03-11T00:38:09.586Z,8.80
2023-03-11T00:40:53.021Z,8.93
2023-03-11T00:43:36.235Z,9.03
2023-03-11T00:46:19.665Z,8.77
2023-03-11T00:49:02.883Z,8.60
2023-03-11T00:51:47.595Z,8.23
2023-03-11T00:54:30.812Z,8.13
2023-03-11T00:57:14.259Z,7.80
2023-03-11T00:59:57.766Z,8.20
2023-03-11T01:02:42.209Z,8.93
2023-03-11T01:05:28.220Z,8.77
2023-03-11T01:08:13.162Z,8.60
2023-03-11T01:10:56.911Z,8.53
2023-03-11T01:13:41.401Z,9.40
2023-03-11T01:16:24.708Z,9.13
2023-03-11T01:19:07.984Z,9.53
2023-03-11T01:21:51.126Z,8.43
2023-03-11T01:24:36.086Z,8.70
2023-03-11T01:27:19.349Z,8.87
2023-03-11T01:30:02.627Z,8.33
2023-03-11T01:32:46.849Z,9.13
2023-03-11T01:35:32.176Z,9.20
2023-03-11T01:38:20.328Z,8.87
2023-03-11T01:41:05.636Z,9.00
2023-03-11T01:43:52.080Z,9.00
2023-03-11T01:47:00.339Z,9.57
2023-03-11T01:49:43.758Z,9.40
2023-03-11T01:52:42.692Z,9.70
2023-03-11T01:55:28.434Z,9.43
2023-03-11T01:58:19.065Z,9.90
2023-03-11T02:01:04.108Z,10.10
2023-03-11T02:03:47.539Z,9.83
2023-03-11T02:06:33.476Z,11.53
2023-03-11T02:09:16.851Z,9.67
2023-03-11T02:12:00.337Z,10.60
2023-03-11T02:14:49.801Z,10.83
2023-03-11T02:17:33.270Z,9.93
2023-03-11T02:20:25.946Z,9.93
2023-03-11T02:23:10.203Z,10.17
2023-03-11T02:26:01.702Z,10.00
2023-03-11T02:28:48.722Z,9.90
2023-03-11T02:31:33.655Z,10.37
2023-03-11T02:34:24.466Z,10.03
2023-03-11T02:37:09.443Z,10.13
2023-03-11T02:39:55.045Z,10.10
2023-03-11T02:42:38.310Z,10.13
2023-03-11T02:45:25.655Z,13.27
2023-03-11T02:48:12.122Z,13.17
2023-03-11T02:50:55.341Z,12.07
2023-03-11T02:53:44.538Z,14.73
2023-03-11T02:56:28.690Z,15.40
2023-03-11T02:59:11.923Z,15.03
2023-03-11T03:01:56.687Z,13.57
2023-03-11T03:04:39.880Z,14.33
2023-03-11T03:07:23.144Z,15.83
2023-03-11T03:10:07.724Z,14.33
2023-03-11T03:12:51.397Z,12.93
2023-03-11T03:15:34.833Z,12.83
2023-03-11T03:18:19.835Z,11.73
2023-03-11T03:21:03.040Z,11.57
2023-03-11T03:23:46.785Z,10.37
2023-03-11T03:26:30.212Z,9.20
2023-03-11T03:29:13.791Z,9.30
2023-03-11T03:31:57.140Z,8.53
2023-03-11T03:34:42.124Z,9.10
2023-03-11T03:37:25.468Z,10.43
2023-03-11T03:40:10.332Z,10.10
2023-03-11T03:42:53.611Z,11.23
2023-03-11T03:45:36.853Z,10.77
2023-03-11T03:48:20.141Z,10.67
2023-03-11T03:51:10.084Z,9.63
2023-03-11T03:53:53.640Z,9.83
2023-03-11T03:56:36.990Z,9.90
2023-03-11T03:59:20.199Z,14.87
2023-03-11T04:02:03.678Z,22.10
2023-03-11T04:04:47.153Z,18.93
2023-03-11T04:07:31.926Z,15.20
2023-03-11T04:10:15.864Z,14.23
2023-03-11T04:12:59.081Z,14.07
2023-03-11T04:15:42.503Z,11.77
2023-03-11T04:18:26.035Z,11.00
2023-03-11T04:21:09.560Z,11.27
2023-03-11T04:23:54.725Z,10.87
2023-03-11T04:26:38.308Z,10.20
2023-03-11T04:29:21.659Z,10.90
2023-03-11T04:32:05.223Z,9.33
2023-03-11T04:34:49.030Z,10.80
2023-03-11T04:37:33.934Z,10.67
2023-03-11T04:40:19.585Z,11.53
2023-03-11T04:43:02.839Z,12.83
2023-03-11T04:45:46.106Z,13.33
2023-03-11T04:48:29.434Z,15.33
2023-03-11T04:51:12.651Z,11.73
2023-03-11T04:53:55.902Z,10.17
2023-03-11T04:56:41.353Z,12.00
2023-03-11T04:59:26.022Z,13.30
2023-03-11T05:02:11.710Z,12.17
2023-03-11T05:04:56.777Z,11.33
2023-03-11T05:07:39.967Z,11.57
2023-03-11T05:10:23.421Z,11.17
2023-03-11T05:13:08.184Z,11.43
2023-03-11T05:15:51.529Z,10.30
2023-03-11T05:18:34.851Z,10.20
2023-03-11T05:21:18.253Z,10.57
2023-03-11T05:24:01.809Z,9.20
2023-03-11T05:26:48.069Z,9.70
2023-03-11T05:29:33.422Z,8.43
2023-03-11T05:32:16.865Z,11.47
2023-03-11T05:35:00.136Z,16.90
2023-03-11T05:37:43.537Z,12.97
2023-03-11T05:40:27.021Z,13.57
2023-03-11T05:43:10.576Z,12.43
2023-03-11T05:45:55.894Z,11.70
2023-03-11T05:48:39.348Z,9.00
2023-03-11T05:51:22.667Z,7.83
2023-03-11T05:54:11.551Z,8.80
2023-03-11T05:56:55.994Z,7.70
2023-03-11T05:59:39.316Z,8.50
2023-03-11T06:02:24.549Z,7.77
2023-03-11T06:05:12.988Z,8.00
2023-03-11T06:07:56.659Z,11.67
2023-03-11T06:10:41.395Z,11.13
2023-03-11T06:13:24.598Z,11.53
2023-03-11T06:16:08.813Z,9.70
2023-03-11T06:18:53.452Z,9.57
2023-03-11T06:21:36.857Z,10.33
2023-03-11T06:24:20.152Z,9.40
2023-03-11T06:27:03.645Z,7.83
2023-03-11T06:29:48.762Z,8.00
2023-03-11T06:32:32.082Z,7.17
2023-03-11T06:35:17.201Z,7.83
2023-03-11T06:38:00.514Z,7.50
2023-03-11T06:40:45.204Z,6.80
2023-03-11T06:43:30.307Z,7.53
2023-03-11T06:46:17.525Z,8.20
2023-03-11T06:49:00.904Z,7.60
2023-03-11T06:51:45.539Z,7.37
2023-03-11T06:54:29.264Z,6.63
2023-03-11T06:57:12.721Z,6.50
2023-03-11T06:59:55.906Z,6.57
2023-03-11T07:02:39.433Z,6.67
2023-03-11T07:05:22.935Z,7.57
2023-03-11T07:08:07.681Z,6.70
2023-03-11T07:11:01.850Z,6.60
2023-03-11T07:13:45.716Z,8.80
2023-03-11T07:16:30.855Z,7.20
2023-03-11T07:19:14.647Z,8.40
2023-03-11T07:21:57.869Z,9.10
2023-03-11T07:24:43.197Z,7.47
2023-03-11T07:27:28.740Z,8.27
2023-03-11T07:30:13.137Z,6.60
2023-03-11T07:32:56.330Z,9.80
2023-03-11T07:35:39.751Z,10.60
2023-03-11T07:38:23.348Z,8.20
2023-03-11T07:41:09.346Z,9.20
2023-03-11T07:43:56.806Z,7.60
2023-03-11T07:46:40.331Z,9.40
2023-03-11T07:49:23.913Z,9.70
2023-03-11T07:52:08.023Z,8.43
2023-03-11T07:54:51.286Z,6.53
2023-03-11T07:57:38.158Z,6.17
2023-03-11T08:00:22.545Z,6.00
2023-03-11T08:03:06.608Z,5.93
2023-03-11T08:05:49.793Z,6.07
2023-03-11T08:08:33.078Z,5.40
2023-03-11T08:11:17.136Z,5.97
2023-03-11T08:14:01.837Z,5.00
2023-03-11T08:16:45.195Z,4.90
2023-03-11T08:19:28.519Z,4.90
2023-03-11T08:22:11.782Z,4.83
2023-03-11T08:24:56.643Z,3.90
2023-03-11T08:27:40.720Z,4.13
2023-03-11T08:30:26.907Z,4.33
2023-03-11T08:33:10.454Z,5.90
2023-03-11T08:35:54.091Z,4.27
2023-03-11T08:38:38.091Z,3.80
2023-03-11T08:41:22.216Z,4.30
2023-03-11T08:44:05.697Z,3.30
2023-03-11T08:46:50.601Z,4.30
2023-03-11T08:49:33.852Z,4.80
2023-03-11T08:52:16.980Z,3.83
2023-03-11T08:55:00.534Z,3.77
2023-03-11T08:57:43.917Z,4.13
2023-03-11T09:00:27.335Z,3.77
2023-03-11T09:03:12.578Z,4.00
2023-03-11T09:05:59.168Z,4.10
2023-03-11T09:08:42.930Z,3.77
2023-03-11T09:11:26.349Z,3.73
2023-03-11T09:14:09.591Z,4.27
2023-03-11T09:16:52.733Z,3.80
2023-03-11T09:19:37.904Z,3.80
2023-03-11T09:22:21.154Z,3.80
2023-03-11T09:25:04.575Z,3.63
2023-03-11T09:27:47.845Z,3.73
2023-03-11T09:30:31.499Z,4.53
2023-03-11T09:33:14.798Z,4.50
2023-03-11T09:36:00.685Z,5.33
2023-03-11T09:38:44.854Z,5.10
2023-03-11T09:41:57.460Z,5.70
2023-03-11T09:44:46.416Z,4.87
2023-03-11T09:47:42.204Z,5.00
2023-03-11T09:50:34.800Z,4.70
2023-03-11T09:53:30.549Z,4.87
2023-03-11T09:56:18.395Z,4.33
2023-03-11T09:59:05.991Z,5.03
2023-03-11T10:01:51.434Z,4.63
2023-03-11T10:04:42.349Z,4.20
2023-03-11T10:07:30.093Z,4.30
2023-03-11T10:10:16.092Z,4.10
2023-03-11T10:13:13.241Z,4.20
2023-03-11T10:16:06.433Z,4.20
2023-03-11T10:19:02.998Z,4.40
2023-03-11T10:21:54.400Z,4.43
2023-03-11T10:24:50.702Z,4.13
2023-03-11T10:27:42.100Z,3.90
2023-03-11T10:30:30.900Z,4.70
2023-03-11T10:33:22.766Z,4.40
2023-03-11T10:36:11.168Z,4.27
2023-03-11T10:38:56.416Z,3.93
2023-03-11T10:41:45.172Z,4.47
2023-03-11T10:44:34.395Z,4.30
2023-03-11T10:47:20.209Z,4.13
2023-03-11T10:50:03.717Z,4.30
2023-03-11T10:53:07.623Z,5.47
2023-03-11T10:55:53.690Z,4.37
2023-03-11T10:58:36.874Z,5.10
2023-03-11T11:01:22.395Z,4.80
2023-03-11T11:04:24.980Z,5.80
2023-03-11T11:07:30.400Z,5.90
2023-03-11T11:10:19.476Z,6.23
2023-03-11T11:13:04.760Z,5.93
2023-03-11T11:16:00.599Z,6.03
2023-03-11T11:18:49.475Z,6.30
2023-03-11T11:21:35.375Z,7.60
2023-03-11T11:24:24.916Z,6.17
2023-03-11T11:27:16.445Z,6.53
2023-03-11T11:30:17.635Z,4.97
2023-03-11T11:33:22.435Z,5.50
2023-03-11T11:36:15.320Z,5.90
2023-03-11T11:39:02.926Z,6.53
2023-03-11T11:41:47.509Z,5.77
2023-03-11T11:44:35.101Z,7.20
2023-03-11T11:47:23.034Z,8.10
2023-03-11T11:50:14.524Z,7.57
2023-03-11T11:53:11.892Z,8.20
2023-03-11T11:55:55.357Z,6.57
2023-03-11T11:58:39.464Z,8.03
2023-03-11T12:01:36.804Z,7.70
2023-03-11T12:04:33.239Z,8.63
2023-03-11T12:07:51.952Z,8.73
2023-03-11T12:10:43.875Z,8.00
2023-03-11T12:13:56.742Z,6.60
2023-03-11T12:16:49.616Z,7.60
2023-03-11T12:19:45.586Z,6.93
2023-03-11T12:22:57.696Z,6.33
2023-03-11T12:25:57.589Z,8.30
2023-03-11T12:28:56.576Z,8.67
2023-03-11T12:31:43.827Z,7.10
2023-03-11T12:34:30.654Z,6.90
2023-03-11T12:37:17.480Z,9.50
2023-03-11T12:40:02.554Z,7.13
2023-03-11T12:42:49.003Z,6.60
2023-03-11T12:45:52.621Z,6.53
2023-03-11T12:48:38.502Z,6.70
2023-03-11T12:51:44.260Z,7.00
2023-03-11T12:54:33.520Z,6.60
2023-03-11T12:57:39.312Z,6.67
2023-03-11T13:00:55.697Z,6.80
2023-03-11T13:03:52.364Z,6.13
2023-03-11T13:07:04.564Z,6.83
2023-03-11T13:10:04.262Z,7.17
2023-03-11T13:12:51.114Z,6.20
2023-03-11T13:15:44.055Z,7.60
2023-03-11T13:18:35.796Z,6.97
2023-03-11T13:21:42.417Z,7.80
2023-03-11T13:24:54.417Z,8.43
2023-03-11T13:27:51.035Z,7.23
2023-03-11T13:30:39.119Z,7.33
2023-03-11T13:33:51.100Z,7.10
2023-03-11T13:37:00.990Z,7.97
2023-03-11T13:40:08.016Z,7.73
2023-03-11T13:42:58.887Z,7.87
2023-03-11T13:45:52.772Z,7.10
2023-03-11T13:48:46.129Z,7.73
2023-03-11T13:51:40.438Z,8.80
2023-03-11T13:54:48.183Z,7.93
2023-03-11T13:57:37.000Z,8.07
2023-03-11T14:00:29.335Z,8.57
2023-03-11T14:03:21.233Z,7.63
2023-03-11T14:06:12.671Z,8.30
2023-03-11T14:09:00.137Z,8.23
2023-03-11T14:11:48.111Z,6.87
2023-03-11T14:14:48.112Z,6.30
2023-03-11T14:17:35.058Z,6.60
2023-03-11T14:20:24.506Z,7.07
2023-03-11T14:23:22.569Z,7.40
2023-03-11T14:26:18.450Z,7.20
2023-03-11T14:29:11.878Z,6.73
2023-03-11T14:31:56.168Z,7.17
2023-03-11T14:34:44.443Z,7.30
2023-03-11T14:37:34.435Z,8.03
2023-03-11T14:40:28.585Z,6.77
2023-03-11T14:43:15.472Z,7.10
2023-03-11T14:46:04.316Z,6.43
2023-03-11T14:48:49.792Z,6.30
2023-03-11T14:51:37.603Z,6.47
2023-03-11T14:54:26.835Z,6.67
2023-03-11T14:57:27.212Z,6.30
2023-03-11T15:00:21.410Z,5.93
2023-03-11T15:03:18.891Z,6.67
2023-03-11T15:06:09.438Z,6.53
2023-03-11T15:08:59.708Z,7.03
2023-03-11T15:11:50.065Z,8.27
2023-03-11T15:14:40.517Z,6.67
2023-03-11T15:17:42.810Z,9.33
2023-03-11T15:20:33.722Z,7.13
2023-03-11T15:23:28.955Z,7.90
2023-03-11T15:26:25.206Z,8.20
2023-03-11T15:29:20.397Z,6.60
2023-03-11T15:32:44.434Z,7.80
2023-03-11T15:35:32.972Z,9.37
2023-03-11T15:38:26.121Z,7.53
2023-03-11T15:41:16.074Z,7.10
2023-03-11T15:44:03.696Z,7.37
2023-03-11T15:46:50.247Z,7.20
2023-03-11T15:49:35.939Z,7.43
2023-03-11T15:52:24.910Z,7.63
2023-03-11T15:55:12.809Z,7.63
2023-03-11T15:58:09.151Z,9.43
2023-03-11T16:00:58.832Z,13.27
2023-03-11T16:03:46.208Z,10.00
2023-03-11T16:06:39.035Z,9.07
2023-03-11T16:09:27.257Z,11.00
2023-03-11T16:12:20.876Z,10.87
2023-03-11T16:15:07.009Z,11.40
2023-03-11T16:17:53.665Z,10.47
2023-03-11T16:20:45.437Z,10.63
2023-03-11T16:23:50.284Z,10.97
2023-03-11T16:26:45.833Z,10.63
2023-03-11T16:29:34.862Z,10.37
2023-03-11T16:32:23.036Z,11.27
2023-03-11T16:35:13.341Z,10.20
2023-03-11T16:38:00.042Z,9.60
2023-03-11T16:40:45.182Z,10.23
2023-03-11T16:43:35.892Z,10.13
2023-03-11T16:46:22.674Z,10.00
2023-03-11T16:49:09.682Z,10.50
2023-03-11T16:51:57.007Z,10.33
2023-03-11T16:54:46.051Z,10.40
2023-03-11T16:57:33.980Z,9.37
2023-03-11T17:00:22.475Z,8.17
2023-03-11T17:03:10.825Z,9.07
2023-03-11T17:06:04.575Z,8.57
2023-03-11T17:08:53.227Z,8.33
2023-03-11T17:11:41.256Z,9.60
2023-03-11T17:14:28.408Z,9.10
2023-03-11T17:17:18.173Z,10.17
2023-03-11T17:20:08.151Z,8.77
2023-03-11T17:22:58.152Z,9.13
2023-03-11T17:25:48.203Z,8.37
2023-03-11T17:28:37.034Z,9.00
2023-03-11T17:31:24.733Z,7.90
2023-03-11T17:34:14.329Z,8.40
2023-03-11T17:37:02.924Z,8.70
2023-03-11T17:39:51.230Z,8.20
2023-03-11T17:42:47.489Z,7.87
2023-03-11T17:45:35.253Z,8.73
2023-03-11T17:48:24.197Z,7.93
2023-03-11T17:51:17.636Z,8.30
2023-03-11T17:54:11.002Z,8.17
2023-03-11T17:57:05.026Z,7.57
2023-03-11T17:59:51.504Z,9.37
2023-03-11T18:02:38.378Z,7.90
2023-03-11T18:05:25.311Z,8.83
2023-03-11T18:08:15.525Z,7.47
2023-03-11T18:11:05.104Z,7.67
2023-03-11T18:13:50.309Z,8.97
2023-03-11T18:16:38.554Z,8.17
2023-03-11T18:19:27.050Z,7.40
2023-03-11T18:22:18.274Z,8.47
2023-03-11T18:25:06.851Z,8.50
2023-03-11T18:27:54.693Z,8.53
2023-03-11T18:30:42.879Z,7.77
2023-03-11T18:33:30.026Z,7.40
2023-03-11T18:36:16.378Z,8.47
2023-03-11T18:39:04.318Z,7.73
2023-03-11T18:41:57.343Z,8.23
2023-03-11T18:44:43.977Z,9.00
2023-03-11T18:47:31.376Z,9.87
2023-03-11T18:50:18.294Z,9.37
2023-03-11T18:53:04.758Z,10.33
2023-03-11T18:55:56.996Z,8.83
2023-03-11T18:58:47.908Z,8.53
2023-03-11T19:01:36.179Z,8.47
2023-03-11T19:04:21.726Z,8.23
2023-03-11T19:07:07.476Z,7.73
2023-03-11T19:09:54.339Z,7.87
2023-03-11T19:12:44.715Z,8.30
2023-03-11T19:15:37.257Z,8.07
2023-03-11T19:18:25.491Z,9.17
2023-03-11T19:21:16.816Z,8.20
2023-03-11T19:24:04.066Z,9.80
2023-03-11T19:26:52.524Z,7.83
2023-03-11T19:29:39.898Z,7.93
2023-03-11T19:32:28.545Z,8.40
2023-03-11T19:35:18.055Z,7.43
2023-03-11T19:38:09.915Z,8.07
2023-03-11T19:40:56.738Z,7.63
2023-03-11T19:43:43.211Z,8.47
2023-03-11T19:46:30.954Z,6.77
2023-03-11T19:49:20.176Z,7.30
2023-03-11T19:52:12.026Z,7.37
2023-03-11T19:54:56.716Z,7.53
2023-03-11T19:57:48.696Z,7.57
2023-03-11T20:00:36.209Z,7.20
2023-03-11T20:03:24.101Z,7.43
2023-03-11T20:06:15.059Z,7.50
2023-03-11T20:09:02.021Z,8.17
2023-03-11T20:11:49.226Z,7.77
2023-03-11T20:14:37.139Z,6.80
2023-03-11T20:17:27.853Z,7.13
2023-03-11T20:20:18.064Z,7.03
2023-03-11T20:23:05.776Z,7.27
2023-03-11T20:25:54.704Z,7.00
2023-03-11T20:28:45.984Z,6.60
2023-03-11T20:31:35.154Z,6.70
2023-03-11T20:34:26.448Z,7.00
2023-03-11T20:37:17.387Z,6.70
2023-03-11T20:40:08.256Z,6.60
2023-03-11T20:42:54.525Z,7.90
2023-03-11T20:45:40.227Z,8.07
2023-03-11T20:48:27.690Z,8.27
2023-03-11T20:51:16.767Z,6.60
2023-03-11T20:54:04.222Z,7.87
2023-03-11T20:56:55.193Z,6.67
2023-03-11T20:59:42.643Z,8.80
2023-03-11T21:02:27.404Z,7.37
2023-03-11T21:05:14.738Z,7.60
2023-03-11T21:08:02.450Z,7.03
2023-03-11T21:10:46.646Z,6.97
2023-03-11T21:13:33.274Z,7.13
2023-03-11T21:16:18.495Z,7.60
2023-03-11T21:19:10.079Z,7.13
2023-03-11T21:21:54.544Z,7.10
2023-03-11T21:24:41.386Z,8.10
2023-03-11T21:27:27.572Z,7.00
2023-03-11T21:30:19.057Z,7.10
2023-03-11T21:33:04.773Z,7.90
2023-03-11T21:35:58.661Z,7.27
2023-03-11T21:38:44.688Z,7.10
2023-03-11T21:41:30.868Z,7.03
2023-03-11T21:44:20.028Z,7.73
2023-03-11T21:47:06.185Z,7.50
2023-03-11T21:49:53.042Z,7.57
2023-03-11T21:52:37.413Z,7.70
2023-03-11T21:55:23.999Z,7.80
2023-03-11T21:58:10.711Z,8.37
2023-03-11T22:00:58.591Z,8.33
2023-03-11T22:03:52.971Z,7.83
2023-03-11T22:06:39.310Z,7.50
2023-03-11T22:09:28.327Z,7.90
2023-03-11T22:12:19.826Z,6.50
2023-03-11T22:15:07.017Z,7.73
2023-03-11T22:17:55.672Z,8.07
2023-03-11T22:20:46.881Z,7.53
2023-03-11T22:23:40.089Z,8.10
2023-03-11T22:26:30.910Z,7.17
2023-03-11T22:29:23.342Z,7.87
2023-03-11T22:32:13.800Z,7.43
2023-03-11T22:35:01.650Z,8.23
2023-03-11T22:37:54.016Z,7.73
2023-03-11T22:40:44.060Z,9.00
2023-03-11T22:43:31.093Z,8.27
2023-03-11T22:46:21.422Z,8.67
2023-03-11T22:49:07.938Z,7.97
2023-03-11T22:51:58.846Z,10.17
2023-03-11T22:54:53.719Z,8.60
2023-03-11T22:57:43.390Z,8.90
2023-03-11T23:00:30.482Z,9.23
2023-03-11T23:03:23.758Z,9.87
2023-03-11T23:06:16.713Z,8.67
2023-03-11T23:09:06.056Z,8.33
2023-03-11T23:11:55.785Z,8.93
2023-03-11T23:14:48.226Z,8.97
2023-03-11T23:17:38.773Z,9.67
2023-03-11T23:20:31.576Z,9.10
2023-03-11T23:23:21.540Z,8.77
2023-03-11T23:26:15.450Z,9.70
2023-03-11T23:29:05.462Z,8.30
2023-03-11T23:31:54.932Z,8.90
2023-03-11T23:34:43.945Z,8.40
2023-03-11T23:37:30.560Z,7.97
2023-03-11T23:40:24.517Z,9.83
2023-03-11T23:43:20.185Z,10.70
2023-03-11T23:46:15.978Z,8.37
2023-03-11T23:49:06.917Z,8.87
2023-03-11T23:51:53.279Z,10.77
2023-03-11T23:54:45.480Z,9.30
2023-03-11T23:57:35.118Z,9.13
